Time;durP1;ratioP1;P1;durP2;ratioP2;P2;SDS_P1;SDS_P2;PMS_P1;PMS_P2;Temp;Humidity;BMP_temperature;BMP_pressure;BME280_temperature;BME280_humidity;BME280_pressure;Samples;Min_cycle;Max_cycle;Signal;HPM_P1;HPM_P2
2022/06/29 00:01:17;;;;;;;3.75;2.92;;;14.30;99.90;;;;;;5147781;27;20045;-61
2022/06/29 00:03:44;;;;;;;5.28;3.10;;;14.20;99.90;;;;;;5126722;27;20039;-62
2022/06/29 00:06:11;;;;;;;3.95;2.92;;;14.20;99.90;;;;;;5147371;27;20046;-61
2022/06/29 00:08:36;;;;;;;4.32;3.17;;;14.20;99.90;;;;;;5153138;27;20062;-61
2022/06/29 00:11:03;;;;;;;4.70;3.30;;;14.20;99.90;;;;;;5144728;27;20098;-61
2022/06/29 00:13:29;;;;;;;5.32;3.67;;;14.20;99.90;;;;;;5133290;27;20451;-61
2022/06/29 00:15:54;;;;;;;6.22;3.50;;;14.20;99.90;;;;;;5147823;27;20044;-61
2022/06/29 00:18:20;;;;;;;5.60;3.42;;;14.20;99.90;;;;;;5133033;27;20115;-62
2022/06/29 00:20:45;;;;;;;5.82;3.47;;;14.20;99.90;;;;;;5149021;27;20494;-61
2022/06/29 00:23:11;;;;;;;5.55;3.55;;;14.20;99.90;;;;;;5151724;27;20542;-62
2022/06/29 00:25:36;;;;;;;4.05;3.50;;;14.10;99.90;;;;;;5146875;27;20039;-62
2022/06/29 00:28:03;;;;;;;4.95;3.63;;;14.10;99.90;;;;;;5128915;27;20039;-61
2022/06/29 00:30:28;;;;;;;5.05;3.38;;;14.10;99.90;;;;;;5150196;27;20047;-61
2022/06/29 00:32:54;;;;;;;8.07;3.55;;;14.00;99.90;;;;;;5149826;27;20560;-61
2022/06/29 00:35:20;;;;;;;4.40;3.50;;;14.10;99.90;;;;;;5148374;27;20031;-61
2022/06/29 00:37:45;;;;;;;4.65;2.90;;;14.10;99.90;;;;;;5150272;27;20027;-62
2022/06/29 00:40:12;;;;;;;4.07;3.05;;;14.00;99.90;;;;;;5148919;27;20031;-61
2022/06/29 00:42:37;;;;;;;3.95;3.30;;;14.00;99.90;;;;;;5148814;27;20038;-62
2022/06/29 00:45:03;;;;;;;9.18;3.22;;;13.90;99.90;;;;;;5149075;27;20041;-62
2022/06/29 00:47:29;;;;;;;5.65;3.40;;;13.90;99.90;;;;;;5150821;27;20034;-61
2022/06/29 00:49:55;;;;;;;5.30;3.50;;;13.80;99.90;;;;;;5131425;27;20061;-62
2022/06/29 00:52:24;;;;;;;4.57;3.63;;;13.80;99.90;;;;;;5145981;27;20100;-61
2022/06/29 00:54:54;;;;;;;5.32;3.88;;;13.80;99.90;;;;;;5150960;27;20047;-61
2022/06/29 00:57:26;;;;;;;5.13;3.60;;;13.70;99.90;;;;;;5150652;27;20478;-62
2022/06/29 00:59:54;;;;;;;4.00;3.60;;;13.70;99.90;;;;;;5146336;27;20377;-61
2022/06/29 01:02:29;;;;;;;6.22;4.15;;;13.60;99.90;;;;;;5143292;27;20403;-62
2022/06/29 01:04:55;;;;;;;4.97;3.60;;;13.50;99.90;;;;;;5144018;27;20045;-62
2022/06/29 01:07:26;;;;;;;4.28;3.83;;;13.50;99.90;;;;;;5151974;27;20042;-61
2022/06/29 01:09:52;;;;;;;5.65;3.75;;;13.50;99.90;;;;;;5150173;27;20035;-61
2022/06/29 01:12:18;;;;;;;5.03;4.28;;;13.50;99.90;;;;;;5143713;27;20035;-61
2022/06/29 01:14:47;;;;;;;5.40;3.80;;;13.50;99.90;;;;;;5139353;27;20105;-61
2022/06/29 01:17:13;;;;;;;7.35;4.72;;;13.40;99.90;;;;;;5140915;27;20443;-61
2022/06/29 01:19:40;;;;;;;6.13;4.63;;;13.40;99.90;;;;;;5147222;27;20051;-61
2022/06/29 01:22:10;;;;;;;6.13;4.32;;;13.30;99.90;;;;;;5148425;27;20397;-61
2022/06/29 01:24:36;;;;;;;;;;;13.30;99.90;;;;;;5148296;27;20039;-61
2022/06/29 01:27:02;;;;;;;8.23;5.13;;;13.20;99.90;;;;;;5148854;27;20303;-61
2022/06/29 01:29:31;;;;;;;6.97;4.32;;;13.20;99.90;;;;;;5144425;27;20125;-61
2022/06/29 01:31:57;;;;;;;8.50;5.00;;;13.20;99.90;;;;;;5142677;27;20050;-62
2022/06/29 01:34:24;;;;;;;7.60;5.00;;;13.20;99.90;;;;;;5143861;27;20041;-60
2022/06/29 01:36:50;;;;;;;7.95;5.00;;;13.20;99.90;;;;;;5141479;27;20110;-61
2022/06/29 01:39:16;;;;;;;7.78;5.55;;;13.20;99.90;;;;;;5148965;27;20077;-61
2022/06/29 01:41:41;;;;;;;7.38;5.45;;;13.20;99.90;;;;;;5149552;27;20066;-62
2022/06/29 01:44:07;;;;;;;8.68;5.97;;;13.20;99.90;;;;;;5142827;27;20430;-61
2022/06/29 01:46:33;;;;;;;6.00;5.20;;;13.20;99.90;;;;;;5147415;27;20462;-61
2022/06/29 01:48:58;;;;;;;8.00;5.75;;;13.20;99.90;;;;;;5147154;27;20042;-61
2022/06/29 01:51:24;;;;;;;9.00;5.20;;;13.20;99.90;;;;;;5150063;27;20118;-61
2022/06/29 01:53:49;;;;;;;6.95;4.93;;;13.30;99.90;;;;;;5145465;27;20053;-62
2022/06/29 01:56:15;;;;;;;7.07;4.63;;;13.20;99.90;;;;;;5149726;27;21088;-60
2022/06/29 01:58:41;;;;;;;8.15;4.95;;;13.30;99.90;;;;;;5130622;27;20034;-61
2022/06/29 02:01:06;;;;;;;6.80;6.10;;;13.20;99.90;;;;;;5148150;27;20034;-60
2022/06/29 02:03:32;;;;;;;6.55;5.22;;;13.20;99.90;;;;;;5138454;27;20062;-62
2022/06/29 02:05:58;;;;;;;8.13;5.65;;;13.30;99.90;;;;;;5147040;27;20423;-60
2022/06/29 02:08:23;;;;;;;6.72;5.38;;;13.20;99.90;;;;;;5149497;27;20347;-61
2022/06/29 02:10:49;;;;;;;6.95;6.20;;;13.20;99.90;;;;;;5148533;27;20045;-62
2022/06/29 02:13:15;;;;;;;6.32;5.68;;;13.20;99.90;;;;;;5146962;27;20043;-61
2022/06/29 02:15:43;;;;;;;6.95;6.07;;;13.20;99.90;;;;;;5149516;27;20042;-61
2022/06/29 02:18:09;;;;;;;7.53;6.13;;;13.20;99.90;;;;;;5146349;27;20050;-62
2022/06/29 02:20:35;;;;;;;7.75;6.00;;;13.30;99.90;;;;;;5145338;27;20043;-61
2022/06/29 02:23:00;;;;;;;7.25;5.97;;;13.30;99.90;;;;;;5133589;27;20080;-61
2022/06/29 02:25:26;;;;;;;9.00;6.30;;;13.30;99.90;;;;;;5148710;27;20087;-61
2022/06/29 02:27:51;;;;;;;9.40;6.68;;;13.30;99.90;;;;;;5151153;27;20119;-62
2022/06/29 02:30:17;;;;;;;8.00;6.40;;;13.30;99.90;;;;;;5143625;27;20034;-60
2022/06/29 02:35:28;;;;;;;9.07;6.72;;;13.20;99.90;;;;;;5139387;27;20072;-61
2022/06/29 02:37:55;;;;;;;9.63;6.30;;;13.20;99.90;;;;;;5149602;27;20062;-62
2022/06/29 02:40:21;;;;;;;9.23;6.75;;;13.20;99.90;;;;;;5150609;27;20094;-62
2022/06/29 02:42:46;;;;;;;10.25;7.20;;;13.10;99.90;;;;;;5148597;27;20031;-61
2022/06/29 02:45:12;;;;;;;9.82;7.40;;;13.10;99.90;;;;;;5146811;27;20436;-62
2022/06/29 02:47:38;;;;;;;8.35;7.40;;;13.10;99.90;;;;;;5150378;27;20079;-61
2022/06/29 02:50:04;;;;;;;12.13;7.97;;;13.10;99.90;;;;;;5144210;27;20038;-61
2022/06/29 02:52:29;;;;;;;11.45;7.10;;;13.10;99.90;;;;;;5128863;27;20086;-61
2022/06/29 02:54:55;;;;;;;9.30;7.35;;;13.10;99.90;;;;;;5149318;27;20510;-61
2022/06/29 02:57:20;;;;;;;10.85;7.90;;;13.00;99.90;;;;;;5148310;27;20439;-61
2022/06/29 02:59:46;;;;;;;10.20;8.20;;;13.10;99.90;;;;;;5142352;27;20102;-62
2022/06/29 03:02:12;;;;;;;8.40;7.28;;;13.00;99.90;;;;;;5148042;27;20171;-61
2022/06/29 03:04:37;;;;;;;9.73;7.97;;;13.00;99.90;;;;;;5148836;27;20506;-61
2022/06/29 03:07:03;;;;;;;9.02;7.90;;;12.90;99.90;;;;;;5144684;27;20148;-61
2022/06/29 03:09:29;;;;;;;9.30;8.30;;;12.90;99.90;;;;;;5155919;27;20091;-61
2022/06/29 03:11:54;;;;;;;8.55;7.70;;;12.90;99.90;;;;;;5144671;27;20042;-61
2022/06/29 03:14:20;;;;;;;9.85;8.10;;;12.90;99.90;;;;;;5147432;27;20125;-61
2022/06/29 03:16:46;;;;;;;10.70;8.00;;;12.90;99.90;;;;;;5153238;27;20027;-61
2022/06/29 03:19:11;;;;;;;9.82;7.47;;;12.90;99.90;;;;;;5152581;27;20034;-61
2022/06/29 03:21:37;;;;;;;9.43;7.20;;;12.80;99.90;;;;;;5154779;27;20030;-62
2022/06/29 03:24:03;;;;;;;8.35;7.55;;;12.80;99.90;;;;;;5134864;27;20131;-62
2022/06/29 03:26:30;;;;;;;10.07;8.05;;;12.80;99.90;;;;;;5158499;27;20050;-62
2022/06/29 03:28:56;;;;;;;9.50;8.40;;;12.80;99.90;;;;;;5157584;27;20031;-62
2022/06/29 03:31:22;;;;;;;9.52;7.57;;;12.80;99.90;;;;;;5115021;27;20582;-61
2022/06/29 03:33:47;;;;;;;10.82;8.50;;;12.80;99.90;;;;;;5115416;27;20034;-61
2022/06/29 03:36:13;;;;;;;9.77;8.68;;;12.80;99.90;;;;;;5155516;27;20035;-60
2022/06/29 03:38:39;;;;;;;10.43;8.45;;;12.80;99.90;;;;;;5152437;27;20092;-62
2022/06/29 03:41:04;;;;;;;9.80;7.93;;;12.80;99.90;;;;;;5152112;27;20043;-60
2022/06/29 03:43:31;;;;;;;11.38;8.45;;;12.80;99.90;;;;;;5159800;27;20538;-61
2022/06/29 03:45:57;;;;;;;15.05;8.88;;;12.80;99.90;;;;;;5149994;27;20033;-60
2022/06/29 03:48:22;;;;;;;10.18;8.07;;;12.80;99.90;;;;;;5154506;27;20761;-62
2022/06/29 03:50:49;;;;;;;10.52;8.35;;;12.80;99.90;;;;;;5133360;27;20083;-60
2022/06/29 03:53:15;;;;;;;11.45;8.63;;;12.80;99.90;;;;;;5155078;27;20042;-61
2022/06/29 03:55:40;;;;;;;8.82;7.60;;;12.80;99.90;;;;;;5150553;27;20061;-61
2022/06/29 03:58:06;;;;;;;9.98;8.80;;;12.80;99.90;;;;;;5153703;27;20478;-61
2022/06/29 04:00:32;;;;;;;12.48;9.32;;;12.90;99.90;;;;;;5144571;27;20710;-60
2022/06/29 04:02:57;;;;;;;11.25;8.38;;;12.80;99.90;;;;;;5155971;27;20477;-61
2022/06/29 04:05:23;;;;;;;8.73;7.82;;;12.80;99.90;;;;;;5156438;27;20729;-62
2022/06/29 04:07:49;;;;;;;11.00;8.27;;;12.90;99.90;;;;;;5157402;27;20394;-61
2022/06/29 04:10:15;;;;;;;9.45;8.15;;;12.80;99.90;;;;;;5150148;27;20042;-60
2022/06/29 04:12:41;;;;;;;10.15;8.32;;;12.90;99.90;;;;;;5148843;27;20063;-62
2022/06/29 04:15:07;;;;;;;10.00;8.15;;;12.90;99.90;;;;;;5151841;27;20434;-61
2022/06/29 04:17:34;;;;;;;11.90;8.82;;;12.90;99.90;;;;;;5141641;27;20023;-61
2022/06/29 04:19:59;;;;;;;10.90;8.85;;;12.90;99.90;;;;;;5148022;27;20034;-61
2022/06/29 04:22:25;;;;;;;9.73;8.23;;;12.90;99.90;;;;;;5147695;27;20035;-62
2022/06/29 04:24:51;;;;;;;10.95;8.93;;;12.90;99.90;;;;;;5153748;27;20030;-61
2022/06/29 04:27:16;;;;;;;10.98;8.70;;;12.90;99.90;;;;;;5148795;27;20042;-62
2022/06/29 04:29:42;;;;;;;12.00;10.05;;;12.90;99.90;;;;;;5151741;27;20114;-61
2022/06/29 04:32:09;;;;;;;12.55;9.65;;;12.90;99.90;;;;;;5150591;27;20407;-62
2022/06/29 04:34:34;;;;;;;11.25;9.07;;;13.00;99.90;;;;;;5151554;27;20047;-62
2022/06/29 04:37:00;;;;;;;10.95;9.45;;;13.00;99.90;;;;;;5148810;27;20110;-61
2022/06/29 04:39:25;;;;;;;9.95;8.40;;;13.10;99.90;;;;;;5148899;27;20599;-62
2022/06/29 04:41:52;;;;;;;9.93;8.93;;;13.20;99.90;;;;;;5150591;27;20117;-61
2022/06/29 04:44:18;;;;;;;10.70;9.60;;;13.30;99.90;;;;;;5150744;27;20039;-60
2022/06/29 04:46:44;;;;;;;11.88;9.10;;;13.40;99.90;;;;;;5144543;27;20103;-61
2022/06/29 04:49:09;;;;;;;11.85;9.20;;;13.60;99.90;;;;;;5153211;27;20074;-61
2022/06/29 04:51:35;;;;;;;11.00;9.82;;;13.70;99.90;;;;;;5148814;27;20046;-61
2022/06/29 04:54:01;;;;;;;14.43;10.48;;;13.80;99.90;;;;;;5144359;27;20042;-61
2022/06/29 04:56:29;;;;;;;10.07;9.07;;;13.90;99.90;;;;;;5150219;27;20600;-61
2022/06/29 04:58:56;;;;;;;10.73;9.63;;;14.00;99.90;;;;;;5137859;27;20042;-62
2022/06/29 05:01:23;;;;;;;12.63;10.73;;;14.10;99.90;;;;;;5141887;27;20459;-62
2022/06/29 05:03:49;;;;;;;12.05;10.85;;;14.10;99.90;;;;;;5150278;27;20038;-61
2022/06/29 05:06:14;;;;;;;12.88;9.82;;;14.20;99.90;;;;;;5130741;27;20031;-61
2022/06/29 05:08:40;;;;;;;10.80;9.30;;;14.30;99.90;;;;;;5153419;27;20034;-61
2022/06/29 05:11:06;;;;;;;12.38;10.15;;;14.40;99.90;;;;;;5142596;27;20095;-62
2022/06/29 05:13:31;;;;;;;13.05;10.10;;;14.50;99.90;;;;;;5150375;27;20035;-61
2022/06/29 05:15:57;;;;;;;12.75;10.63;;;14.60;99.90;;;;;;5142032;27;20035;-62
2022/06/29 05:18:22;;;;;;;11.57;9.32;;;14.70;99.90;;;;;;5126773;27;20344;-61
2022/06/29 05:20:48;;;;;;;11.95;10.45;;;14.70;99.90;;;;;;5148414;27;20065;-62
2022/06/29 05:23:14;;;;;;;11.05;9.95;;;14.80;99.90;;;;;;5147917;27;20038;-61
2022/06/29 05:25:39;;;;;;;14.10;9.75;;;14.80;99.90;;;;;;5146703;27;20037;-62
2022/06/29 05:28:06;;;;;;;11.85;10.20;;;14.90;99.90;;;;;;5150103;27;20042;-61
2022/06/29 05:30:32;;;;;;;12.15;9.52;;;14.90;99.90;;;;;;5148180;27;20074;-62
2022/06/29 05:32:57;;;;;;;12.35;10.45;;;15.00;99.90;;;;;;5143294;27;20066;-62
2022/06/29 05:35:23;;;;;;;12.98;11.32;;;15.10;99.90;;;;;;5148845;27;20045;-63
2022/06/29 05:37:49;;;;;;;12.77;10.77;;;15.20;99.90;;;;;;5151609;27;20117;-62
2022/06/29 05:40:14;;;;;;;14.32;9.88;;;15.30;99.90;;;;;;5147607;27;20118;-62
2022/06/29 05:42:40;;;;;;;9.93;8.68;;;15.50;99.90;;;;;;5151620;27;20042;-61
2022/06/29 05:45:06;;;;;;;12.27;8.98;;;15.70;99.90;;;;;;5141052;27;20492;-62
2022/06/29 05:47:31;;;;;;;11.35;9.60;;;16.00;99.90;;;;;;5143621;27;20080;-62
2022/06/29 05:49:57;;;;;;;14.02;10.27;;;16.20;99.90;;;;;;5140202;27;20037;-61
2022/06/29 05:52:24;;;;;;;9.20;8.07;;;16.50;99.90;;;;;;5151347;27;20039;-61
2022/06/29 05:54:49;;;;;;;9.98;8.70;;;16.80;99.90;;;;;;5153142;27;20655;-61
2022/06/29 05:57:15;;;;;;;9.27;8.10;;;17.10;99.90;;;;;;5146050;27;20066;-61
2022/06/29 05:59:40;;;;;;;9.98;8.25;;;17.30;99.90;;;;;;5126027;27;20042;-63
2022/06/29 06:02:06;;;;;;;9.40;8.00;;;17.50;99.90;;;;;;5140811;27;20038;-61
2022/06/29 06:04:32;;;;;;;9.25;8.00;;;17.70;99.90;;;;;;5145920;27;20094;-62
2022/06/29 06:06:57;;;;;;;8.43;7.35;;;18.00;99.90;;;;;;5148703;27;20039;-62
2022/06/29 06:09:26;;;;;;;8.82;7.35;;;18.20;99.90;;;;;;5149042;27;20042;-63
2022/06/29 06:11:55;;;;;;;7.43;6.78;;;18.40;99.90;;;;;;5147549;27;20035;-62
2022/06/29 06:14:21;;;;;;;8.57;6.55;;;18.70;99.90;;;;;;5144539;27;20409;-61
2022/06/29 06:16:47;;;;;;;8.43;6.32;;;18.90;99.90;;;;;;5150973;27;20037;-62
2022/06/29 06:19:12;;;;;;;6.82;5.35;;;19.20;98.60;;;;;;5144520;27;20375;-62
2022/06/29 06:21:38;;;;;;;8.30;5.13;;;19.40;97.60;;;;;;5148085;27;20466;-63
2022/06/29 06:24:04;;;;;;;8.20;5.47;;;19.50;96.40;;;;;;5144179;27;20039;-62
2022/06/29 06:26:31;;;;;;;7.38;5.43;;;19.70;95.80;;;;;;5142553;27;20498;-62
2022/06/29 06:28:57;;;;;;;6.43;4.70;;;20.00;95.00;;;;;;5148967;27;20046;-63
2022/06/29 06:31:24;;;;;;;6.88;4.72;;;20.20;94.10;;;;;;5138862;27;20064;-63
2022/06/29 06:33:50;;;;;;;7.22;4.93;;;20.40;93.40;;;;;;5139654;27;20039;-62
2022/06/29 06:36:15;;;;;;;4.63;4.25;;;20.60;92.70;;;;;;5138887;27;20205;-62
2022/06/29 06:38:41;;;;;;;5.72;4.55;;;20.80;91.80;;;;;;5136198;27;20027;-63
2022/06/29 06:41:21;;;;;;;6.32;4.40;;;20.90;90.60;;;;;;5144963;27;20085;-62
2022/06/29 06:43:55;;;;;;;5.57;4.43;;;21.10;89.90;;;;;;5138144;27;20026;-61
2022/06/29 06:46:20;;;;;;;5.20;4.07;;;21.20;85.60;;;;;;5125854;27;20042;-63
2022/06/29 06:48:46;;;;;;;4.68;3.30;;;21.30;86.10;;;;;;5131211;27;20106;-63
2022/06/29 06:51:12;;;;;;;5.97;3.45;;;21.50;84.40;;;;;;5136123;27;20118;-62
2022/06/29 06:53:38;;;;;;;3.75;3.33;;;21.60;82.70;;;;;;5147716;27;20050;-61
2022/06/29 06:56:04;;;;;;;5.75;3.45;;;21.70;79.30;;;;;;5144824;27;20185;-61
2022/06/29 06:58:30;;;;;;;4.95;3.10;;;21.70;77.60;;;;;;5143793;27;20049;-62
2022/06/29 07:00:56;;;;;;;4.38;3.08;;;21.90;77.50;;;;;;5138825;27;20047;-62
2022/06/29 07:03:22;;;;;;;5.22;3.20;;;22.00;76.30;;;;;;5143060;27;20047;-62
2022/06/29 07:05:47;;;;;;;3.35;2.90;;;22.20;74.50;;;;;;5141674;27;20505;-60
2022/06/29 07:08:13;;;;;;;4.50;3.38;;;22.40;72.20;;;;;;5145254;27;20045;-63
2022/06/29 07:10:38;;;;;;;4.05;2.80;;;22.40;71.90;;;;;;5128027;27;20134;-62
2022/06/29 07:13:04;;;;;;;4.65;3.08;;;22.60;72.40;;;;;;5149855;27;20034;-63
2022/06/29 07:15:30;;;;;;;5.40;3.20;;;22.80;72.00;;;;;;5146317;27;20030;-63
2022/06/29 07:17:55;;;;;;;4.80;2.83;;;23.00;70.80;;;;;;5142624;27;20035;-63
2022/06/29 07:20:21;;;;;;;4.13;2.78;;;23.20;70.20;;;;;;5148693;27;20035;-63
2022/06/29 07:22:47;;;;;;;3.40;2.30;;;23.40;70.50;;;;;;5130060;27;20041;-64
2022/06/29 07:25:12;;;;;;;3.17;2.38;;;23.80;70.50;;;;;;5147979;27;20072;-64
2022/06/29 07:27:38;;;;;;;2.53;2.33;;;24.10;69.30;;;;;;5145805;27;20039;-63
2022/06/29 07:30:04;;;;;;;5.10;2.38;;;24.20;67.90;;;;;;5117478;27;20506;-62
2022/06/29 07:32:30;;;;;;;2.65;2.30;;;24.50;66.50;;;;;;5151262;27;20050;-64
2022/06/29 07:34:56;;;;;;;4.07;2.10;;;24.50;64.10;;;;;;5144678;27;20034;-63
2022/06/29 07:37:22;;;;;;;3.45;2.42;;;24.70;63.70;;;;;;5148198;27;20768;-62
2022/06/29 07:39:47;;;;;;;3.55;2.20;;;24.80;62.30;;;;;;5147609;27;20502;-63
2022/06/29 07:42:13;;;;;;;4.65;2.35;;;25.00;62.20;;;;;;5149726;27;20121;-63
2022/06/29 07:44:38;;;;;;;4.22;2.30;;;25.10;62.20;;;;;;5130354;27;20038;-62
2022/06/29 07:47:04;;;;;;;5.90;2.00;;;25.10;59.90;;;;;;5132946;27;20045;-62
2022/06/29 07:49:30;;;;;;;5.82;2.28;;;25.30;58.20;;;;;;5150683;27;20134;-63
2022/06/29 07:51:56;;;;;;;3.05;2.30;;;25.30;58.10;;;;;;5147500;27;20035;-63
2022/06/29 07:54:22;;;;;;;3.10;1.58;;;25.40;57.50;;;;;;5153493;27;20106;-63
2022/06/29 07:56:48;;;;;;;2.25;2.00;;;25.80;57.00;;;;;;5156030;27;20030;-63
2022/06/29 07:59:13;;;;;;;3.08;2.03;;;26.00;56.70;;;;;;5155290;27;20103;-63
2022/06/29 08:01:39;;;;;;;3.45;2.00;;;25.70;56.00;;;;;;5153380;27;20042;-63
2022/06/29 08:04:04;;;;;;;3.30;2.30;;;25.70;55.40;;;;;;5135168;27;20053;-62
2022/06/29 08:06:30;;;;;;;2.35;1.95;;;25.40;55.00;;;;;;5150961;27;20035;-62
2022/06/29 08:08:56;;;;;;;4.47;2.00;;;25.20;54.70;;;;;;5152174;27;20090;-63
2022/06/29 08:11:21;;;;;;;3.30;2.00;;;25.30;55.50;;;;;;5135238;27;20501;-63
2022/06/29 08:13:47;;;;;;;3.67;2.10;;;25.30;55.00;;;;;;5154603;27;20151;-63
2022/06/29 08:16:12;;;;;;;2.63;2.08;;;25.70;54.60;;;;;;5154036;27;20035;-64
2022/06/29 08:18:38;;;;;;;2.40;1.77;;;26.00;54.20;;;;;;5154970;27;20034;-64
2022/06/29 08:21:04;;;;;;;2.15;1.80;;;26.50;54.40;;;;;;5155643;27;20038;-63
2022/06/29 08:23:33;;;;;;;3.88;1.85;;;26.60;53.00;;;;;;5135141;27;20399;-63
2022/06/29 08:25:59;;;;;;;4.38;1.95;;;26.70;52.10;;;;;;5149944;27;20031;-63
2022/06/29 08:28:25;;;;;;;2.42;1.95;;;26.70;51.50;;;;;;5156409;27;20389;-62
2022/06/29 08:30:51;;;;;;;9.13;2.35;;;26.80;51.50;;;;;;5136190;27;20489;-63
2022/06/29 08:33:17;;;;;;;4.10;1.80;;;27.10;51.90;;;;;;5125733;27;20064;-63
2022/06/29 08:35:43;;;;;;;5.15;2.00;;;27.30;51.70;;;;;;5138250;27;20041;-65
2022/06/29 08:38:09;;;;;;;3.30;1.67;;;27.90;51.00;;;;;;5143186;27;20035;-63
2022/06/29 08:40:46;;;;;;;2.60;1.70;;;28.30;51.00;;;;;;5156188;27;20438;-63
2022/06/29 08:43:16;;;;;;;2.08;1.70;;;28.50;50.90;;;;;;5156405;27;20476;-64
2022/06/29 08:45:47;;;;;;;3.47;1.60;;;28.70;49.50;;;;;;5153135;27;20114;-63
2022/06/29 08:48:14;;;;;;;2.28;1.60;;;29.00;46.20;;;;;;5154470;27;20038;-64
2022/06/29 08:50:48;;;;;;;2.10;1.60;;;29.40;45.80;;;;;;5147370;27;20080;-63
2022/06/29 08:53:14;;;;;;;3.55;1.50;;;29.50;45.50;;;;;;5135847;27;20039;-64
2022/06/29 08:55:46;;;;;;;1.60;1.50;;;29.60;44.80;;;;;;5137863;27;20043;-64
2022/06/29 08:58:18;;;;;;;4.00;1.50;;;30.10;44.40;;;;;;5142419;27;20359;-63
2022/06/29 09:00:44;;;;;;;3.60;2.00;;;29.90;42.00;;;;;;5147660;27;20454;-63
2022/06/29 09:03:15;;;;;;;1.83;1.70;;;29.90;42.60;;;;;;5154413;27;20043;-64
2022/06/29 09:05:49;;;;;;;3.13;1.60;;;30.10;41.90;;;;;;5149658;27;20042;-64
2022/06/29 09:08:21;;;;;;;2.55;1.60;;;30.50;41.90;;;;;;5154915;27;20061;-63
2022/06/29 09:10:47;;;;;;;1.73;1.63;;;30.60;40.10;;;;;;5168530;27;20077;-64
2022/06/29 09:13:19;;;;;;;2.10;1.73;;;30.70;41.40;;;;;;5168543;27;20070;-63
2022/06/29 09:15:45;;;;;;;1.95;1.75;;;31.00;38.90;;;;;;5156275;27;20034;-63
2022/06/29 09:18:25;;;;;;;2.10;1.55;;;31.10;39.60;;;;;;5153719;27;20034;-64
2022/06/29 09:20:57;;;;;;;1.75;1.50;;;31.60;38.90;;;;;;5153115;27;20035;-63
2022/06/29 09:23:24;;;;;;;2.67;1.80;;;31.80;37.20;;;;;;5135338;27;20035;-64
2022/06/29 09:25:50;;;;;;;2.38;1.52;;;31.60;37.80;;;;;;5134410;27;20134;-63
2022/06/29 09:28:20;;;;;;;1.60;1.50;;;31.90;37.70;;;;;;5134633;27;20501;-65
2022/06/29 09:30:45;;;;;;;1.75;1.40;;;32.20;37.90;;;;;;5133175;27;20051;-64
2022/06/29 09:33:11;;;;;;;2.17;1.65;;;32.20;37.10;;;;;;5143077;27;20027;-63
2022/06/29 09:35:39;;;;;;;3.20;2.00;;;31.90;36.90;;;;;;5148125;27;20378;-63
2022/06/29 09:38:17;;;;;;;2.63;1.70;;;31.30;36.70;;;;;;5137124;27;20034;-64
2022/06/29 09:41:02;;;;;;;2.90;1.85;;;30.40;37.30;;;;;;5153398;27;20046;-63
2022/06/29 09:43:29;;;;;;;2.83;1.88;;;30.50;39.50;;;;;;5122315;27;20069;-63
2022/06/29 09:45:55;;;;;;;2.10;1.77;;;30.50;39.30;;;;;;5158097;27;20105;-63
2022/06/29 09:48:26;;;;;;;2.97;1.80;;;30.20;39.60;;;;;;5153572;27;20125;-63
2022/06/29 09:50:52;;;;;;;2.40;1.88;;;30.40;39.40;;;;;;5118921;27;20039;-63
2022/06/29 09:53:23;;;;;;;2.30;1.92;;;31.20;38.20;;;;;;5149561;27;20066;-64
2022/06/29 09:55:49;;;;;;;2.10;1.90;;;32.00;37.50;;;;;;5137881;27;20031;-64
2022/06/29 09:58:18;;;;;;;3.97;2.00;;;32.70;37.20;;;;;;5112622;27;20035;-64
2022/06/29 10:03:31;;;;;;;3.05;1.98;;;32.90;36.20;;;;;;5137730;27;20138;-64
2022/06/29 10:06:08;;;;;;;2.50;1.70;;;33.70;35.90;;;;;;5136274;27;20343;-65
2022/06/29 10:08:35;;;;;;;4.03;2.00;;;33.90;35.10;;;;;;5132719;27;20481;-65
2022/06/29 10:14:03;;;;;;;3.00;2.20;;;34.90;33.90;;;;;;5130055;27;20039;-63
2022/06/29 10:16:41;;;;;;;4.85;1.90;;;34.50;33.50;;;;;;5126439;27;20083;-63
2022/06/29 10:19:19;;;;;;;2.10;1.90;;;33.90;33.20;;;;;;5129638;27;20160;-65
2022/06/29 10:21:45;;;;;;;2.65;1.83;;;33.40;35.00;;;;;;5127370;27;20121;-65
2022/06/29 10:24:15;;;;;;;2.17;1.98;;;33.10;35.50;;;;;;5130643;27;20171;-64
2022/06/29 10:26:43;;;;;;;2.90;2.10;;;32.70;35.10;;;;;;5133746;27;20035;-63
2022/06/29 10:29:09;;;;;;;2.47;2.10;;;32.50;35.40;;;;;;5126455;27;20390;-65
2022/06/29 10:31:49;;;;;;;2.78;1.90;;;32.10;35.60;;;;;;5130420;27;20039;-64
2022/06/29 10:34:34;;;;;;;2.05;1.80;;;31.50;35.40;;;;;;5121080;27;20035;-64
2022/06/29 10:37:14;;;;;;;3.13;1.83;;;31.00;35.80;;;;;;5129049;27;20046;-63
2022/06/29 10:39:45;;;;;;;4.18;1.77;;;30.60;36.90;;;;;;5130613;27;20136;-64
2022/06/29 10:45:32;;;;;;;2.55;1.95;;;29.80;39.70;;;;;;5120367;27;20047;-64
2022/06/29 10:47:58;;;;;;;2.30;1.95;;;29.50;40.10;;;;;;5128234;27;20039;-63
2022/06/29 10:50:25;;;;;;;3.22;1.85;;;29.10;40.20;;;;;;5124146;27;20088;-64
2022/06/29 10:52:53;;;;;;;2.22;1.92;;;29.10;41.10;;;;;;5128216;27;20027;-64
2022/06/29 10:55:19;;;;;;;2.10;1.90;;;29.00;42.50;;;;;;5148684;27;20055;-62
2022/06/29 10:57:46;;;;;;;3.15;1.95;;;29.10;42.30;;;;;;5153459;27;20078;-64
2022/06/29 11:00:18;;;;;;;2.70;1.80;;;29.60;40.80;;;;;;5143994;27;20164;-64
2022/06/29 11:02:44;;;;;;;2.55;2.20;;;30.20;41.00;;;;;;5145772;27;20416;-63
2022/06/29 11:05:10;;;;;;;2.15;1.95;;;30.20;39.70;;;;;;5142506;27;20047;-65
2022/06/29 11:13:11;;;;;;;2.03;1.80;;;30.00;39.40;;;;;;5145429;27;20099;-65
2022/06/29 11:15:44;;;;;;;2.33;1.70;;;30.20;38.90;;;;;;5113312;27;20035;-63
2022/06/29 11:18:15;;;;;;;2.22;1.70;;;30.10;38.90;;;;;;5149356;27;20402;-63
2022/06/29 11:20:45;;;;;;;3.33;1.60;;;29.90;38.80;;;;;;5149447;27;20122;-64
2022/06/29 11:23:19;;;;;;;1.92;1.70;;;29.70;38.10;;;;;;5148984;27;20440;-64
2022/06/29 11:25:47;;;;;;;2.25;1.90;;;29.70;38.50;;;;;;5152167;27;20035;-64
2022/06/29 11:28:17;;;;;;;2.22;2.03;;;29.70;38.80;;;;;;5145271;27;20643;-64
2022/06/29 11:31:06;;;;;;;2.53;1.80;;;29.60;38.60;;;;;;5128224;27;20031;-63
2022/06/29 11:33:39;;;;;;;2.33;2.13;;;29.70;38.10;;;;;;5158233;27;20050;-64
2022/06/29 11:36:14;;;;;;;2.35;2.15;;;29.70;38.80;;;;;;5161473;27;20206;-63
2022/06/29 11:38:46;;;;;;;3.47;2.20;;;29.50;38.10;;;;;;5160042;27;20038;-65
2022/06/29 11:41:26;;;;;;;3.28;2.63;;;29.40;38.80;;;;;;5152001;27;20042;-63
2022/06/29 11:44:05;;;;;;;2.50;2.30;;;29.70;39.30;;;;;;5155487;27;20073;-62
2022/06/29 11:46:35;;;;;;;4.50;2.50;;;29.60;39.90;;;;;;5134664;27;20034;-64
2022/06/29 11:51:49;;;;;;;4.30;2.63;;;29.10;40.20;;;;;;5145196;27;20051;-64
2022/06/29 11:54:15;;;;;;;4.07;2.60;;;29.00;40.40;;;;;;5163898;27;20147;-65
2022/06/29 11:56:43;;;;;;;2.70;2.50;;;29.10;40.80;;;;;;5154378;27;20047;-64
2022/06/29 11:59:12;;;;;;;3.95;2.72;;;29.60;40.90;;;;;;5156346;27;20045;-63
2022/06/29 12:01:37;;;;;;;4.05;2.97;;;30.00;41.10;;;;;;5152750;27;20130;-65
2022/06/29 12:04:03;;;;;;;3.00;2.78;;;30.00;41.30;;;;;;5152436;27;20126;-64
2022/06/29 12:06:38;;;;;;;4.70;3.50;;;30.40;42.20;;;;;;5150486;27;20031;-65
2022/06/29 12:09:07;;;;;;;4.43;3.25;;;30.20;41.30;;;;;;5142953;27;20439;-64
2022/06/29 12:11:32;;;;;;;4.22;3.40;;;30.20;42.40;;;;;;5149241;27;20038;-63
2022/06/29 12:13:58;;;;;;;3.58;3.28;;;30.00;41.20;;;;;;5153132;27;20042;-64
2022/06/29 12:16:23;;;;;;;3.03;2.80;;;29.80;41.00;;;;;;5154972;27;20041;-63
2022/06/29 12:18:49;;;;;;;3.50;3.17;;;29.50;41.40;;;;;;5129616;27;20033;-64
2022/06/29 12:21:15;;;;;;;5.88;3.45;;;29.20;41.80;;;;;;5152099;27;20532;-64
2022/06/29 12:23:40;;;;;;;4.00;3.35;;;29.00;42.30;;;;;;5151229;27;20030;-65
2022/06/29 12:26:08;;;;;;;3.25;2.95;;;29.10;42.40;;;;;;5113194;27;20081;-63
2022/06/29 12:28:34;;;;;;;6.88;3.38;;;29.30;42.70;;;;;;5147579;27;20043;-63
2022/06/29 12:31:00;;;;;;;5.65;3.45;;;30.50;41.70;;;;;;5139798;27;20034;-63
2022/06/29 12:33:25;;;;;;;3.65;3.35;;;32.10;39.60;;;;;;5142667;27;20459;-65
2022/06/29 12:35:52;;;;;;;4.57;3.03;;;33.30;38.40;;;;;;5149977;27;20046;-64
2022/06/29 12:38:17;;;;;;;7.32;4.35;;;34.40;37.80;;;;;;5142105;27;20045;-63
2022/06/29 12:40:43;;;;;;;4.43;3.53;;;35.00;36.80;;;;;;5127058;27;20386;-64
2022/06/29 12:43:08;;;;;;;5.00;3.47;;;35.10;36.50;;;;;;5151637;27;20034;-64
2022/06/29 12:45:34;;;;;;;3.92;3.60;;;35.90;35.30;;;;;;5147346;27;20387;-63
2022/06/29 12:48:01;;;;;;;4.65;3.40;;;36.00;33.70;;;;;;5127010;27;20129;-64
2022/06/29 12:50:26;;;;;;;4.28;3.83;;;35.80;34.00;;;;;;5149626;27;20034;-63
2022/06/29 12:52:52;;;;;;;6.80;3.90;;;35.10;33.90;;;;;;5140548;27;20028;-65
2022/06/29 12:55:20;;;;;;;7.15;3.58;;;34.40;34.80;;;;;;5147930;27;20047;-64
2022/06/29 12:57:46;;;;;;;3.80;3.40;;;34.30;35.40;;;;;;5151370;27;20521;-64
2022/06/29 13:00:14;;;;;;;4.45;3.45;;;33.80;35.60;;;;;;5142973;27;20049;-64
2022/06/29 13:02:40;;;;;;;4.00;3.35;;;33.20;36.60;;;;;;5152684;27;20156;-64
2022/06/29 13:05:07;;;;;;;4.90;3.80;;;33.10;36.90;;;;;;5141408;27;20039;-65